»·PEaware :: XOJ550 KVNY-KLAS

XOJ550 :: KVNY-KLAS

FLIGHT INFORMATION

Flight Status: Arrived
Operator:
XOJET
More flights by this operator :: More flights under this callsign
Pilot: Kolin J. (28867)
Aircraft: BOMBARDIER BD-100 CHALLENGER 300
(CL30)
More flights by this aircraft type
Origin: KVNY Van Nuys
United States
Destination: KLAS McCarran Intl
United States
More flights between these airports :: More routes between these airports
Route: + HARYS3 MISEN KEPEC6
File this flight plan on PilotEdge
Remarks: CALLSIGN "XOJET 550"
Altitude:
(Current/Filed)
25,000ft
Speed:
(Current/Filed)
450kts
Departed: 07-May-20 12:01 PM
Arrived: 07-May-20 12:41 PM
Distance/Time
Traveled:
199nm/0:40
Distance/Time
To Go:
Arrived

Flight Plot

Page will automatically refresh every two minutes.

Flight plan parsing failed; only flown route is shown


Map Options




Map Legend


Flown Route
Filed Route
Departure Airport
Arrival Airport
Navaid (VOR, NDB)
Fix

Horizontal Profiles

Position Reports

Time Latitude Longitude Heading Altitude Ground
Speed
07-May-20 11:38 34.218447 -118.496520 71 809ft 0kts
07-May-20 11:39 34.218447 -118.496520 71 809ft 0kts
07-May-20 11:40 34.218447 -118.496520 71 809ft 0kts
07-May-20 11:41 34.218447 -118.496520 71 809ft 0kts
07-May-20 11:42 34.218447 -118.496520 71 809ft 0kts
07-May-20 11:43 34.218447 -118.496520 71 809ft 0kts
07-May-20 11:44 34.218447 -118.496520 71 809ft 0kts
07-May-20 11:45 34.218021 -118.496333 178 809ft 6kts
07-May-20 11:46 34.217366 -118.494138 99 809ft 6kts
07-May-20 11:47 34.217208 -118.492942 98 808ft 0kts
07-May-20 11:48 34.217208 -118.492942 98 808ft 0kts
07-May-20 11:49 34.217208 -118.492942 98 808ft 0kts
07-May-20 11:50 34.217208 -118.492942 98 808ft 0kts
07-May-20 11:51 34.217208 -118.492942 98 808ft 0kts
07-May-20 11:52 34.217208 -118.492942 98 808ft 0kts
07-May-20 11:53 34.217208 -118.492942 98 808ft 0kts
07-May-20 11:54 34.217208 -118.492942 98 808ft 0kts
07-May-20 11:55 34.217208 -118.492942 98 808ft 0kts
07-May-20 11:56 34.217208 -118.492942 98 808ft 0kts
07-May-20 11:57 34.217367 -118.492315 15 808ft 10kts
07-May-20 11:58 34.218651 -118.492191 54 809ft 0kts
07-May-20 11:59 34.218241 -118.491191 171 808ft 18kts
07-May-20 12:00 34.191789 -118.488366 173 1494ft 199kts
07-May-20 12:01 34.153666 -118.454556 124 3624ft 249kts
07-May-20 12:02 34.124257 -118.401566 124 4012ft 260kts
07-May-20 12:03 34.107356 -118.350986 71 4004ft 247kts
07-May-20 12:04 34.150510 -118.332207 351 5534ft 247kts
07-May-20 12:05 34.205988 -118.353838 299 7169ft 252kts
07-May-20 12:06 34.231753 -118.409543 319 8704ft 260kts
07-May-20 12:07 34.297358 -118.391267 30 11965ft 303kts
07-May-20 12:08 34.379314 -118.333552 30 14421ft 298kts
07-May-20 12:09 34.461734 -118.275100 30 16774ft 319kts
07-May-20 12:10 34.547743 -118.213951 30 19440ft 333kts
07-May-20 12:11 34.646172 -118.143300 37 22029ft 348kts
07-May-20 12:12 34.684099 -118.011718 78 23113ft 393kts
07-May-20 12:13 34.698796 -117.851089 87 25060ft 408kts
07-May-20 12:14 34.707503 -117.681398 88 25050ft 461kts
07-May-20 12:15 34.718923 -117.496147 74 25044ft 478kts
07-May-20 12:16 34.759894 -117.337274 73 25039ft 485kts
07-May-20 12:17 34.820059 -117.109163 73 25036ft 476kts
07-May-20 12:18 34.878844 -116.884804 73 25037ft 469kts
07-May-20 12:19 34.954215 -116.668204 55 25039ft 466kts
07-May-20 12:20 35.066555 -116.467621 54 25053ft 466kts
07-May-20 12:21 35.189156 -116.295420 45 24521ft 476kts
07-May-20 12:22 35.330506 -116.117605 45 22551ft 468kts
07-May-20 12:23 35.464788 -115.947953 45 19610ft 436kts
07-May-20 12:24 35.597426 -115.779528 46 16492ft 403kts
07-May-20 12:25 35.704156 -115.643381 46 13789ft 376kts
07-May-20 12:26 35.790152 -115.575906 5 13126ft 362kts
07-May-20 12:27 35.893499 -115.567966 1 13102ft 352kts
07-May-20 12:28 35.979505 -115.526619 61 13037ft 355kts
07-May-20 12:29 36.017994 -115.416236 68 12144ft 335kts
07-May-20 12:30 36.026219 -115.313186 95 10318ft 289kts
07-May-20 12:31 36.019896 -115.221588 95 9032ft 255kts
07-May-20 12:32 36.013896 -115.134095 94 8070ft 256kts
07-May-20 12:33 36.005859 -115.050225 124 7989ft 226kts
07-May-20 12:34 35.947535 -115.060655 210 8024ft 255kts
07-May-20 12:35 35.928037 -115.140483 270 6679ft 252kts
07-May-20 12:36 35.935373 -115.222589 321 5130ft 231kts
07-May-20 12:37 35.993382 -115.219989 29 4988ft 216kts
07-May-20 12:38 36.036086 -115.193151 23 4042ft 163kts
07-May-20 12:39 36.069220 -115.173808 22 2443ft 157kts
07-May-20 12:40 36.092426 -115.160672 23 2113ft 38kts
07-May-20 12:41 36.094151 -115.160763 295 2109ft 0kts
07-May-20 12:42 36.093839 -115.162716 200 2116ft 13kts
07-May-20 12:43 36.090989 -115.165115 279 2132ft 9kts
07-May-20 12:45 36.092592 -115.165991 51 2131ft 14kts
07-May-20 12:46 36.093609 -115.162903 19 2117ft 9kts
07-May-20 12:47 36.093916 -115.162868 1 2116ft 0kts
07-May-20 12:48 36.093916 -115.162868 1 2116ft 0kts
07-May-20 12:49 36.093916 -115.162868 1 2116ft 0kts
07-May-20 12:50 36.093916 -115.162868 1 2116ft 0kts
07-May-20 12:51 36.093916 -115.162868 1 2116ft 0kts
07-May-20 12:52 36.093916 -115.162868 1 2116ft 0kts
07-May-20 12:53 36.093916 -115.162868 1 2116ft 0kts
07-May-20 12:54 36.093916 -115.162868 1 2116ft 0kts
07-May-20 12:55 36.093916 -115.162868 1 2116ft 0kts
07-May-20 12:56 36.093916 -115.162868 1 2116ft 0kts

Navigation Log

Ident Type
Flight plan parsing failed, navigation log unavailable